createdAt,value
2022-09-28T00:01:22.113Z,10.82
2022-09-28T00:04:08.398Z,11.69
2022-09-28T00:06:54.159Z,11.43
2022-09-28T00:09:40.556Z,11.47
2022-09-28T00:12:26.364Z,11.35
2022-09-28T00:15:12.630Z,11.63
2022-09-28T00:17:58.561Z,11.36
2022-09-28T00:20:44.800Z,11.42
2022-09-28T00:23:30.643Z,11.36
2022-09-28T00:26:17.130Z,10.65
2022-09-28T00:29:03.065Z,10.39
2022-09-28T00:31:52.295Z,10.29
2022-09-28T00:34:40.673Z,9.99
2022-09-28T00:37:27.032Z,10.79
2022-09-28T00:40:12.929Z,10.51
2022-09-28T00:42:58.919Z,11.00
2022-09-28T00:45:44.892Z,10.38
2022-09-28T00:48:32.637Z,9.60
2022-09-28T00:51:19.264Z,9.95
2022-09-28T00:54:05.332Z,9.87
2022-09-28T00:56:50.847Z,10.37
2022-09-28T00:59:37.305Z,10.56
2022-09-28T01:02:23.087Z,10.96
2022-09-28T01:05:10.350Z,11.16
2022-09-28T01:07:56.547Z,11.22
2022-09-28T01:10:45.875Z,11.75
2022-09-28T01:13:31.689Z,11.82
2022-09-28T01:16:18.101Z,11.66
2022-09-28T01:19:44.280Z,11.40
2022-09-28T01:22:49.158Z,10.26
2022-09-28T01:25:53.953Z,10.06
2022-09-28T01:28:40.377Z,10.47
2022-09-28T01:31:27.219Z,10.41
2022-09-28T01:34:34.197Z,10.97
2022-09-28T01:37:20.366Z,11.14
2022-09-28T01:40:06.612Z,11.71
2022-09-28T01:43:12.769Z,11.63
2022-09-28T01:46:00.648Z,11.37
2022-09-28T01:49:09.835Z,10.95
2022-09-28T01:52:02.041Z,10.94
2022-09-28T01:54:48.026Z,10.80
2022-09-28T01:57:44.816Z,11.30
2022-09-28T02:00:30.745Z,10.89
2022-09-28T02:03:18.543Z,11.32
2022-09-28T02:06:06.574Z,11.32
2022-09-28T02:08:57.419Z,11.28
2022-09-28T02:11:45.685Z,11.36
2022-09-28T02:14:32.015Z,11.81
2022-09-28T02:17:19.345Z,11.73
2022-09-28T02:20:06.011Z,10.20
2022-09-28T02:22:52.454Z,10.40
2022-09-28T02:25:41.055Z,10.50
2022-09-28T02:28:27.298Z,10.13
2022-09-28T02:31:13.804Z,10.00
2022-09-28T02:33:59.512Z,10.69
2022-09-28T02:36:46.467Z,10.75
2022-09-28T02:39:32.230Z,10.60
2022-09-28T02:42:28.816Z,11.39
2022-09-28T02:45:21.699Z,11.56
2022-09-28T02:48:42.723Z,11.66
2022-09-28T02:51:32.917Z,11.83
2022-09-28T02:54:31.411Z,12.21
2022-09-28T02:57:17.530Z,12.38
2022-09-28T03:00:10.373Z,12.39
2022-09-28T03:02:59.341Z,12.30
2022-09-28T03:06:00.424Z,11.34
2022-09-28T03:08:54.894Z,11.96
2022-09-28T03:11:43.895Z,12.40
2022-09-28T03:14:30.037Z,12.05
2022-09-28T03:17:16.312Z,12.10
2022-09-28T03:20:02.604Z,12.00
2022-09-28T03:23:12.312Z,11.91
2022-09-28T03:25:55.039Z,11.92
2022-09-28T03:28:41.600Z,11.67
2022-09-28T03:31:28.093Z,11.63
2022-09-28T03:34:14.438Z,11.69
2022-09-28T03:37:01.313Z,12.03
2022-09-28T03:39:47.936Z,12.00
2022-09-28T03:42:35.569Z,11.89
2022-09-28T03:45:21.574Z,12.22
2022-09-28T03:48:08.099Z,12.47
2022-09-28T03:50:58.020Z,12.28
2022-09-28T03:53:44.176Z,12.31
2022-09-28T03:56:30.610Z,12.48
2022-09-28T03:59:16.661Z,11.78
2022-09-28T04:02:04.572Z,12.22
2022-09-28T04:04:50.820Z,11.21
2022-09-28T04:07:36.910Z,11.42
2022-09-28T04:10:23.236Z,10.78
2022-09-28T04:13:08.894Z,10.92
2022-09-28T04:15:56.102Z,11.24
2022-09-28T04:18:42.549Z,11.37
2022-09-28T04:21:29.448Z,11.49
2022-09-28T04:24:16.191Z,11.69
2022-09-28T04:27:21.375Z,11.59
2022-09-28T04:30:08.205Z,11.61
2022-09-28T04:32:54.852Z,11.55
2022-09-28T04:35:40.592Z,10.87
2022-09-28T04:38:48.463Z,11.75
2022-09-28T04:41:33.060Z,11.84
2022-09-28T04:44:19.794Z,11.81
2022-09-28T04:47:05.571Z,10.22
2022-09-28T04:49:53.122Z,10.57
2022-09-28T04:52:39.061Z,10.73
2022-09-28T04:55:25.858Z,10.88
2022-09-28T04:58:12.965Z,11.54
2022-09-28T05:01:00.398Z,11.71
2022-09-28T05:03:47.544Z,11.61
2022-09-28T05:06:33.846Z,11.51
2022-09-28T05:09:20.332Z,11.40
2022-09-28T05:12:06.557Z,11.30
2022-09-28T05:14:52.564Z,11.12
2022-09-28T05:17:38.953Z,11.13
2022-09-28T05:20:25.000Z,10.94
2022-09-28T05:23:12.375Z,10.97
2022-09-28T05:26:00.585Z,11.29
2022-09-28T05:28:47.184Z,11.41
2022-09-28T05:31:33.521Z,11.14
2022-09-28T05:34:21.464Z,11.17
2022-09-28T05:37:07.143Z,11.20
2022-09-28T05:39:52.958Z,11.35
2022-09-28T05:42:38.643Z,11.42
2022-09-28T05:45:24.782Z,11.30
2022-09-28T05:48:10.969Z,11.24
2022-09-28T05:50:58.709Z,11.39
2022-09-28T05:53:45.543Z,10.49
2022-09-28T05:56:32.055Z,9.59
2022-09-28T05:59:18.310Z,9.80
2022-09-28T06:02:04.986Z,9.56
2022-09-28T06:04:51.373Z,10.40
2022-09-28T06:07:37.615Z,10.71
2022-09-28T06:10:24.206Z,11.02
2022-09-28T06:13:10.510Z,10.91
2022-09-28T06:15:57.735Z,10.46
2022-09-28T06:18:45.136Z,10.13
2022-09-28T06:21:32.128Z,10.80
2022-09-28T06:24:17.985Z,10.45
2022-09-28T06:27:04.193Z,10.58
2022-09-28T06:29:50.115Z,10.59
2022-09-28T06:32:36.501Z,10.54
2022-09-28T06:35:22.900Z,10.62
2022-09-28T06:38:10.623Z,10.70
2022-09-28T06:40:59.771Z,10.80
2022-09-28T06:43:46.468Z,11.11
2022-09-28T06:46:35.690Z,10.51
2022-09-28T06:49:27.834Z,10.92
2022-09-28T06:52:14.445Z,10.72
2022-09-28T06:55:02.032Z,11.31
2022-09-28T06:57:48.111Z,11.61
2022-09-28T07:00:35.641Z,11.30
2022-09-28T07:03:22.138Z,11.37
2022-09-28T07:06:09.545Z,11.90
2022-09-28T07:09:11.489Z,12.27
2022-09-28T07:12:04.944Z,11.90
2022-09-28T07:14:56.245Z,12.61
2022-09-28T07:17:55.050Z,12.21
2022-09-28T07:20:53.652Z,12.31
2022-09-28T07:23:51.696Z,13.01
2022-09-28T07:26:41.359Z,12.78
2022-09-28T07:29:28.347Z,13.56
2022-09-28T07:32:14.124Z,13.45
2022-09-28T07:35:01.652Z,14.00
2022-09-28T07:37:47.506Z,14.27
2022-09-28T07:40:53.165Z,14.29
2022-09-28T07:43:40.181Z,14.13
2022-09-28T07:46:26.541Z,14.47
2022-09-28T07:49:15.647Z,14.46
2022-09-28T07:52:04.379Z,14.82
2022-09-28T07:54:52.200Z,13.59
2022-09-28T07:57:40.044Z,13.52
2022-09-28T08:00:34.156Z,14.00
2022-09-28T08:03:22.461Z,14.71
2022-09-28T08:06:11.192Z,15.25
2022-09-28T08:08:59.956Z,14.39
2022-09-28T08:11:46.585Z,14.05
2022-09-28T08:14:34.400Z,14.19
2022-09-28T08:17:20.661Z,13.87
2022-09-28T08:20:25.774Z,13.69
2022-09-28T08:23:11.979Z,13.59
2022-09-28T08:25:59.280Z,14.38
2022-09-28T08:28:46.761Z,14.87
2022-09-28T08:31:36.979Z,14.96
2022-09-28T08:34:23.851Z,15.03
2022-09-28T08:37:12.596Z,15.10
2022-09-28T08:40:00.221Z,14.93
2022-09-28T08:42:46.501Z,14.80
2022-09-28T08:45:36.381Z,14.43
2022-09-28T08:48:52.221Z,15.29
2022-09-28T08:51:52.485Z,16.11
2022-09-28T08:54:45.044Z,16.35
2022-09-28T08:57:36.180Z,16.47
2022-09-28T09:00:42.708Z,15.65
2022-09-28T09:03:35.875Z,16.51
2022-09-28T09:06:34.441Z,16.60
2022-09-28T09:09:30.733Z,16.56
2022-09-28T09:12:33.062Z,15.97
2022-09-28T09:15:18.797Z,16.70
2022-09-28T09:18:23.116Z,17.03
2022-09-28T09:21:13.621Z,17.03
2022-09-28T09:24:27.442Z,17.86
2022-09-28T09:27:22.771Z,16.58
2022-09-28T09:30:10.858Z,17.53
2022-09-28T09:32:56.931Z,17.44
2022-09-28T09:35:43.912Z,18.57
2022-09-28T09:38:50.650Z,17.04
2022-09-28T09:41:42.008Z,17.39
2022-09-28T09:44:46.177Z,16.74
2022-09-28T09:47:36.018Z,17.01
2022-09-28T09:50:30.799Z,17.10
2022-09-28T09:53:20.925Z,16.51
2022-09-28T09:56:09.928Z,16.83
2022-09-28T09:58:57.464Z,17.76
2022-09-28T10:01:44.183Z,17.94
2022-09-28T10:04:32.388Z,17.00
2022-09-28T10:07:26.318Z,18.16
2022-09-28T10:10:14.303Z,16.33
2022-09-28T10:13:00.761Z,16.39
2022-09-28T10:15:49.066Z,16.69
2022-09-28T10:18:36.934Z,17.35
2022-09-28T10:21:26.483Z,17.31
2022-09-28T10:24:33.195Z,18.13
2022-09-28T10:27:24.186Z,17.23
2022-09-28T10:30:09.904Z,18.34
2022-09-28T10:32:59.485Z,18.39
2022-09-28T10:35:47.864Z,17.13
2022-09-28T10:38:34.356Z,17.13
2022-09-28T10:41:22.730Z,17.13
2022-09-28T10:44:12.952Z,18.06
2022-09-28T10:47:02.502Z,18.27
2022-09-28T10:49:49.766Z,18.62
2022-09-28T10:52:36.803Z,17.11
2022-09-28T10:55:32.189Z,16.75
2022-09-28T10:58:24.217Z,16.64
2022-09-28T11:01:17.562Z,16.68
2022-09-28T11:04:04.922Z,17.28
2022-09-28T11:06:51.440Z,17.45
2022-09-28T11:09:39.342Z,18.33
2022-09-28T11:12:27.315Z,17.51
2022-09-28T11:15:17.523Z,18.70
2022-09-28T11:18:22.662Z,18.64
2022-09-28T11:21:12.125Z,18.83
2022-09-28T11:24:01.436Z,18.67
2022-09-28T11:26:48.417Z,18.91
2022-09-28T11:29:35.976Z,18.51
2022-09-28T11:32:24.709Z,18.03
2022-09-28T11:35:39.097Z,18.59
2022-09-28T11:38:33.632Z,18.96
2022-09-28T11:41:28.442Z,18.92
2022-09-28T11:44:23.902Z,19.47
2022-09-28T11:47:24.923Z,19.42
2022-09-28T11:50:22.998Z,18.62
2022-09-28T11:53:10.597Z,18.60
2022-09-28T11:56:15.578Z,18.08
2022-09-28T11:59:20.430Z,18.70
2022-09-28T12:02:16.793Z,18.72
2022-09-28T12:05:06.280Z,19.29
2022-09-28T12:07:56.450Z,18.87
2022-09-28T12:11:01.803Z,18.94
2022-09-28T12:13:51.501Z,18.92
2022-09-28T12:20:10.873Z,18.86
2022-09-28T12:22:59.955Z,19.00
2022-09-28T12:25:47.257Z,18.84
2022-09-28T12:28:33.355Z,18.53
2022-09-28T12:31:39.537Z,18.98
2022-09-28T12:34:26.037Z,18.39
2022-09-28T12:37:23.514Z,18.94
2022-09-28T12:40:09.745Z,19.47
2022-09-28T12:43:14.623Z,20.02
2022-09-28T12:46:11.886Z,20.13
2022-09-28T12:49:47.320Z,20.18
2022-09-28T12:52:09.017Z,20.30
2022-09-28T12:54:59.016Z,20.55
2022-09-28T12:57:57.652Z,20.41
2022-09-28T13:00:46.898Z,20.72
2022-09-28T13:03:36.760Z,20.81
2022-09-28T13:06:28.772Z,21.21
2022-09-28T13:09:16.745Z,20.94
2022-09-28T13:12:05.804Z,20.74
2022-09-28T13:15:11.202Z,20.02
2022-09-28T13:18:16.233Z,19.92
2022-09-28T13:21:08.317Z,18.64
2022-09-28T13:24:00.766Z,18.82
2022-09-28T13:26:50.645Z,18.64
2022-09-28T13:29:36.849Z,18.59
2022-09-28T13:32:24.295Z,18.12
2022-09-28T13:35:19.554Z,18.66
2022-09-28T13:38:18.142Z,18.33
2022-09-28T13:41:04.144Z,18.04
2022-09-28T13:43:50.451Z,18.42
2022-09-28T13:46:56.268Z,19.10
2022-09-28T13:49:42.252Z,19.11
2022-09-28T13:52:37.377Z,18.90
2022-09-28T13:55:29.893Z,18.49
2022-09-28T13:58:24.719Z,18.92
2022-09-28T14:01:11.726Z,18.95
2022-09-28T14:04:19.073Z,19.43
2022-09-28T14:07:16.850Z,18.56
2022-09-28T14:10:18.699Z,18.86
2022-09-28T14:13:06.659Z,18.58
2022-09-28T14:15:55.334Z,18.50
2022-09-28T14:18:41.304Z,18.63
2022-09-28T14:21:46.222Z,17.53
2022-09-28T14:24:51.186Z,18.08
2022-09-28T14:27:38.029Z,18.38
2022-09-28T14:30:42.633Z,17.98
2022-09-28T14:33:29.834Z,18.33
2022-09-28T14:36:57.481Z,18.63
2022-09-28T14:40:05.740Z,18.88
2022-09-28T14:43:20.687Z,18.63
2022-09-28T14:46:14.581Z,19.01
2022-09-28T14:49:04.341Z,18.60
2022-09-28T14:51:54.187Z,18.31
2022-09-28T14:54:50.000Z,18.41
2022-09-28T14:57:36.417Z,18.75
2022-09-28T15:00:23.080Z,17.92
2022-09-28T15:03:12.247Z,18.27
2022-09-28T15:05:59.430Z,17.92
2022-09-28T15:08:45.760Z,18.08
2022-09-28T15:11:31.470Z,18.16
2022-09-28T15:14:17.973Z,18.21
2022-09-28T15:17:10.807Z,17.79
2022-09-28T15:20:26.586Z,17.77
2022-09-28T15:23:28.213Z,17.93
2022-09-28T15:26:27.604Z,17.79
2022-09-28T15:29:20.277Z,17.62
2022-09-28T15:32:06.367Z,17.69
2022-09-28T15:34:52.750Z,17.45
2022-09-28T15:37:40.717Z,17.65
2022-09-28T15:40:29.571Z,17.91
2022-09-28T15:43:24.785Z,17.92
2022-09-28T15:46:13.550Z,17.60
2022-09-28T15:49:01.559Z,17.69
2022-09-28T15:51:48.739Z,18.25
2022-09-28T15:54:38.888Z,17.53
2022-09-28T15:57:36.850Z,17.64
2022-09-28T16:00:23.416Z,17.72
2022-09-28T16:03:09.551Z,17.56
2022-09-28T16:05:58.312Z,17.54
2022-09-28T16:08:49.001Z,17.70
2022-09-28T16:11:38.713Z,17.85
2022-09-28T16:14:24.691Z,17.58
2022-09-28T16:17:14.161Z,17.67
2022-09-28T16:20:19.000Z,17.58
2022-09-28T16:23:17.051Z,17.43
2022-09-28T16:26:08.515Z,16.90
2022-09-28T16:28:54.147Z,17.09
2022-09-28T16:31:43.843Z,16.63
2022-09-28T16:34:30.771Z,16.60
2022-09-28T16:37:31.476Z,17.00
2022-09-28T16:40:17.641Z,17.08
2022-09-28T16:43:04.508Z,16.81
2022-09-28T16:45:50.314Z,16.86
2022-09-28T16:48:37.526Z,17.09
2022-09-28T16:51:23.588Z,17.31
2022-09-28T16:54:38.559Z,17.32
2022-09-28T16:57:24.366Z,16.89
2022-09-28T17:00:23.969Z,16.93
2022-09-28T17:03:13.629Z,16.81
2022-09-28T17:05:59.813Z,16.62
2022-09-28T17:08:45.627Z,16.43
2022-09-28T17:11:31.769Z,16.28
2022-09-28T17:14:18.643Z,16.54
2022-09-28T17:17:09.845Z,16.37
2022-09-28T17:19:57.751Z,16.58
2022-09-28T17:22:44.099Z,16.77
2022-09-28T17:25:30.164Z,16.55
2022-09-28T17:28:20.753Z,16.57
2022-09-28T17:31:06.748Z,16.76
2022-09-28T17:33:53.034Z,16.55
2022-09-28T17:36:39.201Z,16.28
2022-09-28T17:39:25.590Z,16.41
2022-09-28T17:42:11.509Z,16.52
2022-09-28T17:44:58.043Z,16.44
2022-09-28T17:47:44.224Z,16.26
2022-09-28T17:50:32.486Z,16.41
2022-09-28T17:53:18.350Z,15.78
2022-09-28T17:56:04.822Z,15.90
2022-09-28T17:58:50.693Z,16.14
2022-09-28T18:01:38.200Z,16.08
2022-09-28T18:04:50.211Z,16.00
2022-09-28T18:07:31.765Z,15.95
2022-09-28T18:10:19.652Z,15.94
2022-09-28T18:13:05.787Z,15.83
2022-09-28T18:15:52.029Z,15.93
2022-09-28T18:18:39.846Z,15.96
2022-09-28T18:21:26.081Z,15.96
2022-09-28T18:24:11.966Z,15.61
2022-09-28T18:26:58.387Z,16.12
2022-09-28T18:29:45.224Z,15.98
2022-09-28T18:32:33.486Z,15.98
2022-09-28T18:35:23.027Z,15.97
2022-09-28T18:38:10.456Z,16.00
2022-09-28T18:40:56.607Z,15.66
2022-09-28T18:43:48.889Z,15.81
2022-09-28T18:46:36.782Z,15.39
2022-09-28T18:49:23.117Z,15.65
2022-09-28T18:52:10.117Z,15.26
2022-09-28T18:54:56.639Z,15.71
2022-09-28T18:57:44.143Z,15.64
2022-09-28T19:00:30.471Z,15.47
2022-09-28T19:03:16.395Z,15.49
2022-09-28T19:06:02.547Z,15.24
2022-09-28T19:08:52.245Z,15.28
2022-09-28T19:11:38.279Z,14.93
2022-09-28T19:14:26.509Z,14.96
2022-09-28T19:17:12.638Z,15.04
2022-09-28T19:19:58.853Z,15.06
2022-09-28T19:22:45.349Z,15.43
2022-09-28T19:25:31.443Z,15.12
2022-09-28T19:28:17.196Z,15.37
2022-09-28T19:31:03.801Z,15.53
2022-09-28T19:33:50.455Z,15.77
2022-09-28T19:36:36.322Z,15.87
2022-09-28T19:39:22.733Z,15.50
2022-09-28T19:42:08.593Z,15.55
2022-09-28T19:44:54.856Z,16.11
2022-09-28T19:47:40.837Z,15.82
2022-09-28T19:50:27.224Z,15.64
2022-09-28T19:53:13.347Z,15.27
2022-09-28T19:56:01.452Z,15.05
2022-09-28T19:58:47.416Z,14.10
2022-09-28T20:01:33.711Z,14.73
2022-09-28T20:04:22.890Z,14.82
2022-09-28T20:07:08.649Z,14.77
2022-09-28T20:09:54.993Z,15.06
2022-09-28T20:12:42.381Z,15.14
2022-09-28T20:15:28.828Z,14.68
2022-09-28T20:18:14.753Z,14.84
2022-09-28T20:21:07.599Z,14.92
2022-09-28T20:23:57.395Z,14.85
2022-09-28T20:26:44.399Z,14.83
2022-09-28T20:29:31.814Z,14.67
2022-09-28T20:32:18.272Z,15.01
2022-09-28T20:35:04.313Z,14.62
2022-09-28T20:37:51.052Z,14.92
2022-09-28T20:40:37.383Z,15.19
2022-09-28T20:43:24.207Z,15.13
2022-09-28T20:46:10.642Z,15.49
2022-09-28T20:48:57.978Z,15.33
2022-09-28T20:51:43.937Z,15.38
2022-09-28T20:54:31.056Z,15.13
2022-09-28T20:57:21.112Z,14.31
2022-09-28T21:00:07.760Z,14.77
2022-09-28T21:02:53.713Z,15.01
2022-09-28T21:05:40.114Z,15.27
2022-09-28T21:08:26.301Z,15.53
2022-09-28T21:11:13.024Z,15.04
2022-09-28T21:13:59.677Z,15.42
2022-09-28T21:16:45.844Z,15.72
2022-09-28T21:19:31.931Z,15.71
2022-09-28T21:22:18.110Z,15.41
2022-09-28T21:25:04.270Z,15.55
2022-09-28T21:27:50.628Z,15.73
2022-09-28T21:30:36.730Z,15.70
2022-09-28T21:33:23.253Z,15.46
2022-09-28T21:36:08.729Z,15.81
2022-09-28T21:38:55.557Z,15.60
2022-09-28T21:41:41.688Z,15.11
2022-09-28T21:44:27.676Z,15.00
2022-09-28T21:47:13.701Z,14.96
2022-09-28T21:50:00.017Z,14.89
2022-09-28T21:52:45.989Z,15.10
2022-09-28T21:55:32.482Z,15.48
2022-09-28T21:58:18.527Z,14.94
2022-09-28T22:01:08.217Z,15.20
2022-09-28T22:03:55.412Z,15.25
2022-09-28T22:06:41.361Z,15.56
2022-09-28T22:09:27.922Z,15.63
2022-09-28T22:12:14.074Z,14.88
2022-09-28T22:15:00.378Z,15.56
2022-09-28T22:17:46.458Z,15.43
2022-09-28T22:20:32.700Z,15.45
2022-09-28T22:23:18.508Z,15.45
2022-09-28T22:26:07.051Z,15.21
2022-09-28T22:28:56.651Z,15.27
2022-09-28T22:31:42.767Z,15.36
2022-09-28T22:34:31.609Z,15.61
2022-09-28T22:37:17.880Z,15.51
2022-09-28T22:40:03.944Z,15.45
2022-09-28T22:42:50.174Z,15.18
2022-09-28T22:45:35.785Z,15.19
2022-09-28T22:48:22.183Z,15.21
2022-09-28T22:51:08.333Z,15.65
2022-09-28T22:53:54.516Z,15.38
2022-09-28T22:56:40.351Z,15.41
2022-09-28T22:59:26.236Z,15.62
2022-09-28T23:02:12.164Z,15.46
2022-09-28T23:04:57.979Z,15.20
2022-09-28T23:07:44.025Z,15.04
2022-09-28T23:10:30.385Z,14.69
2022-09-28T23:13:16.362Z,14.93
2022-09-28T23:16:03.921Z,14.86
2022-09-28T23:18:50.021Z,15.08
2022-09-28T23:21:37.155Z,15.42
2022-09-28T23:24:23.127Z,15.21
2022-09-28T23:27:09.524Z,15.70
2022-09-28T23:29:55.459Z,15.50
2022-09-28T23:32:41.417Z,15.12
2022-09-28T23:35:26.893Z,15.24
2022-09-28T23:38:17.954Z,15.12
2022-09-28T23:41:04.185Z,15.23
2022-09-28T23:43:50.390Z,15.30
2022-09-28T23:46:36.261Z,15.30
2022-09-28T23:49:22.893Z,15.09
2022-09-28T23:52:08.957Z,15.11
2022-09-28T23:54:55.299Z,14.82
2022-09-28T23:57:42.945Z,14.84
